Time;durP1;ratioP1;P1;durP2;ratioP2;P2;SDS_P1;SDS_P2;PMS_P1;PMS_P2;Temp;Humidity;BMP_temperature;BMP_pressure;BME280_temperature;BME280_humidity;BME280_pressure;Samples;Min_cycle;Max_cycle;Signal;HPM_P1;HPM_P2
2023/05/02 06:49:31;;;;;;;1.13;1.10;;;;;;;;;;5589544;23;20054;-84
2023/05/02 06:51:56;;;;;;;1.60;1.50;;;;;;;;;;4955420;29;20121;-76
2023/05/02 06:54:21;;;;;;;1.30;1.20;;;;;;;;;;4955845;29;20027;-77
2023/05/02 06:56:47;;;;;;;1.10;1.10;;;;;;;;;;4955903;29;20024;-77
2023/05/02 06:59:12;;;;;;;1.40;1.30;;;;;;;;;;4928457;29;20447;-78
2023/05/02 07:01:38;;;;;;;1.40;1.30;;;;;;;;;;4936701;29;20034;-78
2023/05/02 07:04:04;;;;;;;1.30;1.27;;;;;;;;;;4936578;29;20042;-78
2023/05/02 07:06:31;;;;;;;1.38;1.27;;;;;;;;;;4936552;29;20028;-78
2023/05/02 07:08:56;;;;;;;2.13;1.40;;;;;;;;;;4936507;29;20059;-78
2023/05/02 07:11:22;;;;;;;1.55;1.45;;;;;;;;;;4936741;29;20491;-77
2023/05/02 07:13:48;;;;;;;1.40;1.30;;;;;;;;;;4936539;29;20043;-77
2023/05/02 07:16:14;;;;;;;1.25;1.25;;;;;;;;;;4936539;29;20032;-78
2023/05/02 07:18:39;;;;;;;1.60;1.50;;;;;;;;;;4936322;29;20030;-78
2023/05/02 07:21:05;;;;;;;1.35;1.25;;;;;;;;;;4919521;29;20066;-82
2023/05/02 07:23:30;;;;;;;1.40;1.30;;;;;;;;;;4919403;29;20065;-78
2023/05/02 07:25:56;;;;;;;2.20;1.45;;;;;;;;;;4936624;29;20039;-78
2023/05/02 07:28:21;;;;;;;1.30;1.20;;;;;;;;;;4936329;29;20031;-78
2023/05/02 07:30:47;;;;;;;1.67;1.30;;;;;;;;;;4936514;29;20035;-77
2023/05/02 07:33:14;;;;;;;1.40;1.30;;;;;;;;;;4936332;29;20023;-76
2023/05/02 07:35:39;;;;;;;1.77;1.67;;;;;;;;;;4936344;29;20079;-78
2023/05/02 07:38:05;;;;;;;1.60;1.50;;;;;;;;;;4936095;29;20027;-81
2023/05/02 07:40:30;;;;;;;1.50;1.40;;;;;;;;;;4936239;29;20403;-77
2023/05/02 07:42:57;;;;;;;1.33;1.23;;;;;;;;;;4936201;29;20028;-77
2023/05/02 07:45:22;;;;;;;1.20;1.10;;;;;;;;;;4936331;29;20028;-77
2023/05/02 07:47:48;;;;;;;1.40;1.30;;;;;;;;;;4935862;29;20027;-78
2023/05/02 07:50:13;;;;;;;1.27;1.20;;;;;;;;;;4935898;29;20056;-78
2023/05/02 09:56:12;;;;;;;1.10;1.00;;;;;;;;;;4955663;28;20120;-80
2023/05/02 09:58:38;;;;;;;1.42;1.05;;;;;;;;;;4956505;29;20074;-76
2023/05/02 10:01:03;;;;;;;1.10;1.00;;;;;;;;;;4958149;28;20035;-80
2023/05/02 10:03:31;;;;;;;1.58;1.10;;;;;;;;;;4940032;29;20027;-83
2023/05/02 10:05:57;;;;;;;1.10;1.00;;;;;;;;;;4957423;29;20023;-82
2023/05/02 10:08:27;;;;;;;1.00;1.00;;;;;;;;;;4957282;29;20058;-75
2023/05/02 10:10:55;;;;;;;1.73;1.10;;;;;;;;;;4956449;29;20027;-76
2023/05/02 10:13:25;;;;;;;1.10;1.00;;;;;;;;;;4956712;29;20417;-76
2023/05/02 10:16:01;;;;;;;0.80;0.80;;;;;;;;;;4956764;29;20023;-77
2023/05/02 10:18:39;;;;;;;1.30;1.13;;;;;;;;;;4956514;28;20031;-82
2023/05/02 10:21:08;;;;;;;1.33;1.20;;;;;;;;;;4956900;29;20064;-79
2023/05/02 10:23:37;;;;;;;1.20;1.10;;;;;;;;;;4956769;29;20031;-78
2023/05/02 10:26:02;;;;;;;1.03;1.03;;;;;;;;;;4956524;29;20498;-77
2023/05/02 10:28:29;;;;;;;1.00;0.93;;;;;;;;;;4956403;29;20269;-76
2023/05/02 10:30:56;;;;;;;1.00;1.00;;;;;;;;;;4939155;29;20423;-76
2023/05/02 10:33:22;;;;;;;1.50;1.35;;;;;;;;;;4956744;29;20063;-80
2023/05/02 10:35:48;;;;;;;1.30;1.20;;;;;;;;;;4956578;29;20533;-82
2023/05/02 10:38:18;;;;;;;1.30;1.20;;;;;;;;;;4956528;29;20024;-78
2023/05/02 10:40:54;;;;;;;0.93;0.93;;;;;;;;;;4956286;28;20023;-78
2023/05/02 10:43:22;;;;;;;2.30;1.20;;;;;;;;;;4956404;29;20031;-78
2023/05/02 10:45:48;;;;;;;2.28;1.65;;;;;;;;;;4956411;29;20063;-80
2023/05/02 10:48:26;;;;;;;1.10;1.10;;;;;;;;;;4956090;29;20067;-77
2023/05/02 10:51:00;;;;;;;1.17;1.08;;;;;;;;;;4956784;29;20039;-77
2023/05/02 10:53:27;;;;;;;0.95;0.95;;;;;;;;;;4956610;29;20051;-79
2023/05/02 10:56:14;;;;;;;1.52;1.20;;;;;;;;;;4956328;29;20123;-77
2023/05/02 10:58:41;;;;;;;0.98;0.98;;;;;;;;;;4956217;29;20027;-83
2023/05/02 11:01:30;;;;;;;1.48;1.15;;;;;;;;;;4956973;29;20042;-81
2023/05/02 11:03:58;;;;;;;1.00;1.00;;;;;;;;;;4952843;29;20046;-86
2023/05/02 11:06:29;;;;;;;1.05;0.90;;;;;;;;;;4956373;29;20050;-90
2023/05/02 11:09:17;;;;;;;1.10;1.00;;;;;;;;;;4956181;29;20505;-91
2023/05/02 11:11:44;;;;;;;1.42;1.08;;;;;;;;;;4955964;29;20028;-87
2023/05/02 11:14:10;;;;;;;0.90;0.90;;;;;;;;;;4956383;29;20027;-89
2023/05/02 11:17:03;;;;;;;1.02;1.02;;;;;;;;;;4956281;29;20446;-92
2023/05/02 11:19:52;;;;;;;1.15;0.90;;;;;;;;;;4956054;29;20062;-91
2023/05/02 11:22:18;;;;;;;0.88;0.88;;;;;;;;;;4956420;29;20034;-89
2023/05/02 11:24:46;;;;;;;1.88;1.20;;;;;;;;;;4956150;29;20027;-95
2023/05/02 11:27:30;;;;;;;1.00;1.00;;;;;;;;;;4956623;29;20055;-90
2023/05/02 11:30:00;;;;;;;1.90;1.50;;;;;;;;;;4956240;28;20027;-91
2023/05/02 11:32:52;;;;;;;1.20;1.20;;;;;;;;;;4955700;29;20370;-86
2023/05/02 11:35:22;;;;;;;1.10;1.10;;;;;;;;;;4938275;29;20045;-83
2023/05/02 11:37:54;;;;;;;1.10;1.10;;;;;;;;;;4955742;29;20023;-78
2023/05/02 11:40:20;;;;;;;1.65;1.08;;;;;;;;;;4955762;29;20027;-80
2023/05/02 11:42:46;;;;;;;0.90;0.90;;;;;;;;;;4955657;29;20085;-78
2023/05/02 11:45:11;;;;;;;1.73;1.00;;;;;;;;;;4955541;29;20477;-79
2023/05/02 11:47:37;;;;;;;1.48;1.20;;;;;;;;;;4955773;29;20033;-81
2023/05/02 11:50:06;;;;;;;1.60;1.50;;;;;;;;;;4955465;29;20072;-84
2023/05/02 11:52:39;;;;;;;1.65;1.23;;;;;;;;;;4955192;29;20054;-82
2023/05/02 11:55:07;;;;;;;1.10;1.00;;;;;;;;;;4955666;29;20043;-86
2023/05/02 11:57:33;;;;;;;1.00;1.00;;;;;;;;;;4955881;29;20019;-82
2023/05/02 11:59:59;;;;;;;1.00;1.00;;;;;;;;;;4955739;29;20086;-86
2023/05/02 12:02:40;;;;;;;1.10;1.00;;;;;;;;;;4955783;29;20046;-91
2023/05/02 12:05:08;;;;;;;1.08;0.98;;;;;;;;;;4955505;29;20028;-90
2023/05/02 12:07:38;;;;;;;1.20;1.20;;;;;;;;;;4955690;29;20363;-81
2023/05/02 12:10:05;;;;;;;1.27;1.17;;;;;;;;;;4938402;29;20039;-78
2023/05/02 12:12:31;;;;;;;1.13;1.10;;;;;;;;;;4938039;29;20073;-81
2023/05/02 12:14:56;;;;;;;1.75;1.50;;;;;;;;;;4955579;29;20028;-77
2023/05/02 12:17:22;;;;;;;1.40;1.30;;;;;;;;;;4955155;29;20030;-77
2023/05/02 12:19:49;;;;;;;1.88;1.20;;;;;;;;;;4955102;29;20042;-76
2023/05/02 12:22:15;;;;;;;3.03;1.48;;;;;;;;;;4955189;29;20019;-79
2023/05/02 12:24:42;;;;;;;1.80;1.52;;;;;;;;;;4955224;29;20026;-77
2023/05/02 12:27:14;;;;;;;2.55;1.27;;;;;;;;;;4955136;29;20027;-77
2023/05/02 12:29:44;;;;;;;3.53;1.58;;;;;;;;;;4955175;29;20102;-77
2023/05/02 12:32:10;;;;;;;1.77;1.45;;;;;;;;;;4954868;29;20110;-78
2023/05/02 12:34:37;;;;;;;5.75;1.60;;;;;;;;;;4955092;29;20208;-77
2023/05/02 12:37:03;;;;;;;2.05;1.30;;;;;;;;;;4955022;29;20485;-78
2023/05/02 12:39:40;;;;;;;2.47;1.42;;;;;;;;;;4955492;29;20066;-82
2023/05/02 12:42:13;;;;;;;1.35;1.17;;;;;;;;;;4955632;28;20098;-77
2023/05/02 12:44:42;;;;;;;1.45;1.30;;;;;;;;;;4958504;29;20462;-78
2023/05/02 12:47:09;;;;;;;;;;;;;;;;;;4958954;29;20031;-76
2023/05/02 12:49:55;;;;;;;1.30;1.20;;;;;;;;;;4958494;29;19921;-77
2023/05/02 12:52:58;;;;;;;2.35;1.52;;;;;;;;;;4958671;29;20125;-77
2023/05/02 12:55:28;;;;;;;1.92;1.40;;;;;;;;;;4956473;29;20435;-76
2023/05/02 12:58:00;;;;;;;;;;;;;;;;;;4958322;29;20031;-76
2023/05/02 13:00:26;;;;;;;3.00;1.70;;;;;;;;;;4958107;29;20412;-77
2023/05/02 13:02:52;;;;;;;3.03;1.40;;;;;;;;;;4958153;29;20032;-76
2023/05/02 13:05:18;;;;;;;1.50;1.40;;;;;;;;;;4957955;29;20034;-78
2023/05/02 13:07:44;;;;;;;1.45;1.35;;;;;;;;;;4957837;29;20031;-76
2023/05/02 13:10:10;;;;;;;3.63;1.80;;;;;;;;;;4957929;29;20398;-76
2023/05/02 13:12:37;;;;;;;2.05;1.80;;;;;;;;;;4957857;29;20051;-78
2023/05/02 13:15:07;;;;;;;2.42;1.90;;;;;;;;;;4957771;29;20110;-78
2023/05/02 13:17:33;;;;;;;4.18;2.00;;;;;;;;;;4957764;29;20035;-76
2023/05/02 13:20:00;;;;;;;2.63;1.70;;;;;;;;;;4957641;29;20042;-76
2023/05/02 13:22:26;;;;;;;3.33;1.95;;;;;;;;;;4957541;29;20023;-76
2023/05/02 13:24:52;;;;;;;2.80;2.03;;;;;;;;;;4957643;29;20023;-77
2023/05/02 13:27:17;;;;;;;3.83;2.40;;;;;;;;;;4957624;29;20391;-77
2023/05/02 13:29:44;;;;;;;6.90;2.30;;;;;;;;;;4957461;29;20031;-77
2023/05/02 13:32:09;;;;;;;3.53;2.22;;;;;;;;;;4957372;28;20030;-76
2023/05/02 13:34:36;;;;;;;3.88;2.10;;;;;;;;;;4957253;29;20027;-76
2023/05/02 13:37:01;;;;;;;3.60;2.15;;;;;;;;;;4957514;29;20484;-76
2023/05/02 13:39:26;;;;;;;3.13;2.10;;;;;;;;;;4957345;29;20034;-76
2023/05/02 13:41:52;;;;;;;4.20;2.10;;;;;;;;;;4957316;28;20035;-76
2023/05/02 13:44:17;;;;;;;2.40;1.88;;;;;;;;;;4957493;29;20086;-76
2023/05/02 13:46:43;;;;;;;6.35;2.13;;;;;;;;;;4957381;29;20023;-76
2023/05/02 13:49:09;;;;;;;2.97;2.03;;;;;;;;;;4956993;29;20462;-77
2023/05/02 13:51:34;;;;;;;2.50;1.70;;;;;;;;;;4957097;28;20030;-77
2023/05/02 13:54:01;;;;;;;2.40;1.40;;;;;;;;;;4956441;28;20023;-76
2023/05/02 13:56:26;;;;;;;2.10;1.50;;;;;;;;;;4957125;29;20039;-80
2023/05/02 13:58:52;;;;;;;6.45;1.60;;;;;;;;;;4957173;29;20083;-80
2023/05/02 14:01:17;;;;;;;2.05;1.45;;;;;;;;;;4957194;29;20390;-76
2023/05/02 14:03:43;;;;;;;2.10;1.80;;;;;;;;;;4957126;29;20039;-76
2023/05/02 14:06:09;;;;;;;3.08;1.90;;;;;;;;;;4956923;29;20031;-79
2023/05/02 14:08:34;;;;;;;1.55;1.42;;;;;;;;;;4956732;29;20027;-76
2023/05/02 14:11:00;;;;;;;1.60;1.50;;;;;;;;;;4956884;28;20027;-77
2023/05/02 14:13:25;;;;;;;1.33;1.23;;;;;;;;;;4939913;29;20375;-76
2023/05/02 14:15:52;;;;;;;1.98;1.77;;;;;;;;;;4956871;29;20490;-76
2023/05/02 14:18:17;;;;;;;1.50;1.40;;;;;;;;;;4956650;29;20043;-76
2023/05/02 14:20:43;;;;;;;1.90;1.80;;;;;;;;;;4956490;28;20034;-77
2023/05/02 14:23:08;;;;;;;1.77;1.50;;;;;;;;;;4956521;29;20027;-77
2023/05/02 14:25:35;;;;;;;1.75;1.65;;;;;;;;;;4956393;29;20027;-76
2023/05/02 14:28:01;;;;;;;3.10;1.95;;;;;;;;;;4956621;29;20037;-77
2023/05/02 14:30:27;;;;;;;3.13;2.00;;;;;;;;;;4956332;29;20031;-78
2023/05/02 14:32:52;;;;;;;1.80;1.70;;;;;;;;;;4956146;29;20057;-76
2023/05/02 14:35:18;;;;;;;1.95;1.73;;;;;;;;;;4956084;29;20031;-76
2023/05/02 14:37:44;;;;;;;1.55;1.45;;;;;;;;;;4955940;29;20031;-76
2023/05/02 14:40:11;;;;;;;1.85;1.50;;;;;;;;;;4956276;29;20038;-75
2023/05/02 14:42:36;;;;;;;1.80;1.70;;;;;;;;;;4956051;28;20070;-77
2023/05/02 14:45:02;;;;;;;1.70;1.60;;;;;;;;;;4939068;29;20039;-77
2023/05/02 14:47:31;;;;;;;1.42;1.33;;;;;;;;;;4939081;29;20122;-77
2023/05/02 14:49:56;;;;;;;1.50;1.40;;;;;;;;;;4939079;29;20035;-77
2023/05/02 14:52:22;;;;;;;1.48;1.38;;;;;;;;;;4956588;28;20035;-77
2023/05/02 14:54:47;;;;;;;2.97;1.55;;;;;;;;;;4956082;29;20130;-75
2023/05/02 14:57:14;;;;;;;1.60;1.50;;;;;;;;;;4956217;29;20027;-76
2023/05/02 14:59:40;;;;;;;1.70;1.60;;;;;;;;;;4956257;29;20038;-76
2023/05/02 15:02:05;;;;;;;2.53;1.85;;;;;;;;;;4956409;28;20031;-77
2023/05/02 15:04:31;;;;;;;2.30;1.60;;;;;;;;;;4956439;29;20027;-74
2023/05/02 15:06:57;;;;;;;2.30;1.98;;;;;;;;;;4955595;28;20031;-75
2023/05/02 15:09:26;;;;;;;2.47;1.55;;;;;;;;;;4955948;29;20430;-76
2023/05/02 15:11:52;;;;;;;;;;;;;;;;;;4956184;28;20442;-80
2023/05/02 15:14:17;;;;;;;1.77;1.50;;;;;;;;;;4938678;29;19997;-78
2023/05/02 15:16:43;;;;;;;1.52;1.40;;;;;;;;;;4955940;29;20023;-76
2023/05/02 15:19:09;;;;;;;1.65;1.55;;;;;;;;;;4955562;29;20486;-74
2023/05/02 15:21:34;;;;;;;2.00;1.33;;;;;;;;;;4955558;28;20023;-74
2023/05/02 15:24:00;;;;;;;3.65;1.75;;;;;;;;;;4955867;29;20034;-78
2023/05/02 15:26:26;;;;;;;11.52;2.47;;;;;;;;;;4955588;29;20023;-78
2023/05/02 15:28:51;;;;;;;3.65;1.52;;;;;;;;;;4955588;29;20035;-79
2023/05/02 15:31:17;;;;;;;1.58;1.40;;;;;;;;;;4955504;28;20124;-78
2023/05/02 15:33:42;;;;;;;1.77;1.35;;;;;;;;;;4955491;29;20058;-80
2023/05/02 15:36:08;;;;;;;1.75;1.50;;;;;;;;;;4955322;29;20054;-80
2023/05/02 15:38:38;;;;;;;1.42;1.30;;;;;;;;;;4955398;29;20031;-80
2023/05/02 15:41:04;;;;;;;2.20;1.80;;;;;;;;;;4955288;28;20488;-76
2023/05/02 15:43:30;;;;;;;2.13;1.52;;;;;;;;;;4955185;29;20131;-75
2023/05/02 15:45:57;;;;;;;1.70;1.60;;;;;;;;;;4955150;29;20110;-75
2023/05/02 15:48:26;;;;;;;1.67;1.58;;;;;;;;;;4955222;29;20046;-77
2023/05/02 15:50:52;;;;;;;1.65;1.55;;;;;;;;;;4955294;28;20055;-75
2023/05/02 15:53:18;;;;;;;1.65;1.55;;;;;;;;;;4955311;29;20067;-75
2023/05/02 15:55:44;;;;;;;2.20;2.00;;;;;;;;;;4955094;29;20035;-75
2023/05/02 15:58:13;;;;;;;2.05;1.70;;;;;;;;;;4955830;29;20463;-77
2023/05/02 16:00:40;;;;;;;1.70;1.60;;;;;;;;;;4955206;28;20027;-74
2023/05/02 16:03:05;;;;;;;2.25;1.55;;;;;;;;;;4955989;29;20034;-75
2023/05/02 16:05:31;;;;;;;1.85;1.45;;;;;;;;;;4955203;29;20027;-75
2023/05/02 16:07:57;;;;;;;2.45;1.80;;;;;;;;;;4955064;29;20065;-75
2023/05/02 16:10:23;;;;;;;2.08;1.77;;;;;;;;;;4954907;28;20059;-75
2023/05/02 16:12:48;;;;;;;3.20;1.73;;;;;;;;;;4954860;29;20185;-76
2023/05/02 16:15:14;;;;;;;2.38;1.90;;;;;;;;;;4954815;29;20032;-78
2023/05/02 16:17:41;;;;;;;1.90;1.80;;;;;;;;;;4956743;28;20482;-76
2023/05/02 16:20:07;;;;;;;3.15;1.80;;;;;;;;;;4941520;29;20114;-76
2023/05/02 16:22:33;;;;;;;1.98;1.77;;;;;;;;;;4958522;28;20106;-76
2023/05/02 16:24:58;;;;;;;2.15;1.65;;;;;;;;;;4958848;29;20566;-76
2023/05/02 16:27:24;;;;;;;1.98;1.88;;;;;;;;;;4958584;29;20170;-76
2023/05/02 16:29:49;;;;;;;2.38;2.05;;;;;;;;;;4958694;29;20085;-76
2023/05/02 16:32:15;;;;;;;2.55;2.00;;;;;;;;;;4958533;28;20034;-75
2023/05/02 16:34:40;;;;;;;2.60;2.30;;;;;;;;;;4958538;29;20029;-76
2023/05/02 16:37:06;;;;;;;2.88;2.50;;;;;;;;;;4958729;29;20489;-76
2023/05/02 16:39:35;;;;;;;2.75;2.25;;;;;;;;;;4941257;29;20099;-76
2023/05/02 16:42:00;;;;;;;3.37;2.80;;;;;;;;;;4940913;29;20397;-75
2023/05/02 16:44:26;;;;;;;3.47;2.40;;;;;;;;;;4958276;29;20038;-77
2023/05/02 16:46:52;;;;;;;2.22;2.03;;;;;;;;;;4958115;29;20035;-76
2023/05/02 16:49:17;;;;;;;3.40;2.38;;;;;;;;;;4958328;29;20035;-76
2023/05/02 16:51:43;;;;;;;2.90;2.60;;;;;;;;;;4958451;28;20054;-76
2023/05/02 16:54:09;;;;;;;2.67;2.30;;;;;;;;;;4958590;29;20075;-74
2023/05/02 16:56:35;;;;;;;2.25;2.10;;;;;;;;;;4957944;29;20086;-76
2023/05/02 16:59:01;;;;;;;2.15;1.95;;;;;;;;;;4957939;29;20070;-75
2023/05/02 17:01:26;;;;;;;2.20;2.05;;;;;;;;;;4958058;28;20051;-75
2023/05/02 17:03:52;;;;;;;2.40;2.20;;;;;;;;;;4958369;29;20031;-76
2023/05/02 17:06:19;;;;;;;2.50;2.30;;;;;;;;;;4958157;29;20053;-75
2023/05/02 17:08:44;;;;;;;3.53;2.35;;;;;;;;;;4957978;29;20027;-75
2023/05/02 17:11:10;;;;;;;2.42;2.22;;;;;;;;;;4958210;28;20024;-75
2023/05/02 17:13:36;;;;;;;6.05;3.10;;;;;;;;;;4957799;29;20482;-76
2023/05/02 17:16:02;;;;;;;3.03;2.25;;;;;;;;;;4957952;29;20066;-74
2023/05/02 17:18:27;;;;;;;2.53;2.33;;;;;;;;;;4957813;29;20102;-77
2023/05/02 17:20:53;;;;;;;3.00;2.70;;;;;;;;;;4957918;28;20034;-75
2023/05/02 17:23:20;;;;;;;7.38;4.68;;;;;;;;;;4957918;29;20106;-75
2023/05/02 17:25:46;;;;;;;30.98;14.93;;;;;;;;;;4940440;29;20406;-74
2023/05/02 17:28:12;;;;;;;21.90;10.82;;;;;;;;;;4957551;28;20426;-74
2023/05/02 17:30:37;;;;;;;7.75;4.45;;;;;;;;;;4957107;28;20027;-74
2023/05/02 17:33:03;;;;;;;3.88;2.58;;;;;;;;;;4957817;29;20050;-75
2023/05/02 17:35:28;;;;;;;2.65;2.10;;;;;;;;;;4957665;29;20389;-74
2023/05/02 17:37:54;;;;;;;4.90;4.40;;;;;;;;;;4940672;29;20031;-75
2023/05/02 17:40:19;;;;;;;29.77;24.83;;;;;;;;;;4957869;28;20038;-75
2023/05/02 17:42:45;;;;;;;12.00;10.70;;;;;;;;;;4957853;29;20443;-75
2023/05/02 17:45:11;;;;;;;5.20;4.70;;;;;;;;;;4957597;29;20027;-75
2023/05/02 17:47:36;;;;;;;4.47;4.05;;;;;;;;;;4958012;29;20027;-75
2023/05/02 17:50:03;;;;;;;3.38;3.08;;;;;;;;;;4957818;29;20039;-76
2023/05/02 17:52:30;;;;;;;2.90;2.50;;;;;;;;;;4957474;28;20382;-76
2023/05/02 17:54:56;;;;;;;3.85;2.80;;;;;;;;;;4957572;29;20447;-75
2023/05/02 17:57:21;;;;;;;5.03;2.90;;;;;;;;;;4957571;29;20090;-74
2023/05/02 17:59:49;;;;;;;3.85;2.95;;;;;;;;;;4957325;29;20023;-76
2023/05/02 18:02:16;;;;;;;8.40;5.40;;;;;;;;;;4957178;28;20110;-78
2023/05/02 18:04:42;;;;;;;7.28;5.25;;;;;;;;;;4957452;29;20020;-75
2023/05/02 18:07:07;;;;;;;13.35;8.82;;;;;;;;;;4957437;29;20031;-74
2023/05/02 18:09:33;;;;;;;9.40;7.00;;;;;;;;;;4957483;29;20097;-77
2023/05/02 18:11:59;;;;;;;8.00;6.05;;;;;;;;;;4956855;28;20031;-75
2023/05/02 18:14:25;;;;;;;16.88;9.88;;;;;;;;;;4957267;29;20031;-76
2023/05/02 18:16:51;;;;;;;7.45;5.10;;;;;;;;;;4939906;29;20030;-75
2023/05/02 18:19:17;;;;;;;4.97;3.67;;;;;;;;;;4957027;29;20031;-77
2023/05/02 18:21:45;;;;;;;11.57;6.75;;;;;;;;;;4940142;29;20042;-91
2023/05/02 18:24:10;;;;;;;11.07;6.70;;;;;;;;;;4957291;29;20106;-76
2023/05/02 18:26:36;;;;;;;13.65;7.95;;;;;;;;;;4956944;29;20107;-75
2023/05/02 18:29:02;;;;;;;8.88;5.85;;;;;;;;;;4956770;29;20090;-75
2023/05/02 18:31:27;;;;;;;5.55;3.70;;;;;;;;;;4956623;28;20518;-75
2023/05/02 18:33:53;;;;;;;4.60;2.40;;;;;;;;;;4956884;29;20472;-79
2023/05/02 18:36:28;;;;;;;3.17;2.20;;;;;;;;;;4956678;29;20074;-75
2023/05/02 18:38:56;;;;;;;4.00;2.67;;;;;;;;;;4956398;29;20475;-75
